sensor_id;sensor_type;location;lat;lon;timestamp;temperature;humidity
51175;DHT22;37240;50.104;20.010;2022-07-12T00:01:20;16.00;99.90
51175;DHT22;37240;50.104;20.010;2022-07-12T00:06:20;16.00;99.90
51175;DHT22;37240;50.104;20.010;2022-07-12T00:11:21;16.00;99.90
51175;DHT22;37240;50.104;20.010;2022-07-12T00:16:21;15.90;99.90
51175;DHT22;37240;50.104;20.010;2022-07-12T00:21:22;15.90;99.90
51175;DHT22;37240;50.104;20.010;2022-07-12T00:26:22;15.90;99.90
51175;DHT22;37240;50.104;20.010;2022-07-12T00:31:23;15.90;99.90
51175;DHT22;37240;50.104;20.010;2022-07-12T00:36:24;15.90;99.90
51175;DHT22;37240;50.104;20.010;2022-07-12T00:41:24;15.90;99.90
51175;DHT22;37240;50.104;20.010;2022-07-12T00:46:25;15.90;99.90
51175;DHT22;37240;50.104;20.010;2022-07-12T00:51:25;15.90;99.90
51175;DHT22;37240;50.104;20.010;2022-07-12T00:56:26;15.90;99.90
51175;DHT22;37240;50.104;20.010;2022-07-12T01:01:27;16.00;99.90
51175;DHT22;37240;50.104;20.010;2022-07-12T01:06:27;16.00;99.90
51175;DHT22;37240;50.104;20.010;2022-07-12T01:11:29;15.90;99.90
51175;DHT22;37240;50.104;20.010;2022-07-12T01:16:31;15.90;99.90
51175;DHT22;37240;50.104;20.010;2022-07-12T01:21:35;16.00;99.90
51175;DHT22;37240;50.104;20.010;2022-07-12T01:26:37;16.00;99.90
51175;DHT22;37240;50.104;20.010;2022-07-12T01:31:38;16.00;99.90
51175;DHT22;37240;50.104;20.010;2022-07-12T01:36:39;16.00;99.90
51175;DHT22;37240;50.104;20.010;2022-07-12T01:41:41;16.00;99.90
51175;DHT22;37240;50.104;20.010;2022-07-12T01:46:41;16.00;99.90
51175;DHT22;37240;50.104;20.010;2022-07-12T01:51:42;16.00;99.90
51175;DHT22;37240;50.104;20.010;2022-07-12T01:56:43;16.10;99.90
51175;DHT22;37240;50.104;20.010;2022-07-12T02:01:44;16.10;99.90
51175;DHT22;37240;50.104;20.010;2022-07-12T02:06:45;16.00;99.90
51175;DHT22;37240;50.104;20.010;2022-07-12T02:11:46;16.10;99.90
51175;DHT22;37240;50.104;20.010;2022-07-12T02:16:46;16.10;99.90
51175;DHT22;37240;50.104;20.010;2022-07-12T02:21:47;16.10;99.90
51175;DHT22;37240;50.104;20.010;2022-07-12T02:26:48;16.10;99.90
51175;DHT22;37240;50.104;20.010;2022-07-12T02:31:48;16.10;99.90
51175;DHT22;37240;50.104;20.010;2022-07-12T02:36:49;16.10;99.90
51175;DHT22;37240;50.104;20.010;2022-07-12T02:41:49;16.10;99.90
51175;DHT22;37240;50.104;20.010;2022-07-12T02:46:50;16.10;99.90
51175;DHT22;37240;50.104;20.010;2022-07-12T02:51:50;16.10;99.90
51175;DHT22;37240;50.104;20.010;2022-07-12T02:56:51;16.10;99.90
51175;DHT22;37240;50.104;20.010;2022-07-12T03:01:51;16.10;99.90
51175;DHT22;37240;50.104;20.010;2022-07-12T03:06:52;16.10;99.90
51175;DHT22;37240;50.104;20.010;2022-07-12T03:11:52;16.10;99.90
51175;DHT22;37240;50.104;20.010;2022-07-12T03:16:53;16.10;99.90
51175;DHT22;37240;50.104;20.010;2022-07-12T03:21:53;16.10;99.90
51175;DHT22;37240;50.104;20.010;2022-07-12T03:26:54;16.10;99.90
51175;DHT22;37240;50.104;20.010;2022-07-12T03:31:54;16.10;99.90
51175;DHT22;37240;50.104;20.010;2022-07-12T03:36:55;16.10;99.90
51175;DHT22;37240;50.104;20.010;2022-07-12T03:41:55;16.10;99.90
51175;DHT22;37240;50.104;20.010;2022-07-12T03:46:56;16.10;99.90
51175;DHT22;37240;50.104;20.010;2022-07-12T03:51:57;16.10;99.90
51175;DHT22;37240;50.104;20.010;2022-07-12T03:56:58;16.10;99.90
51175;DHT22;37240;50.104;20.010;2022-07-12T04:01:58;16.00;99.90
51175;DHT22;37240;50.104;20.010;2022-07-12T04:06:59;16.10;99.90
51175;DHT22;37240;50.104;20.010;2022-07-12T04:11:59;16.10;99.90
51175;DHT22;37240;50.104;20.010;2022-07-12T04:17:00;16.10;99.90
51175;DHT22;37240;50.104;20.010;2022-07-12T04:22:00;16.20;99.90
51175;DHT22;37240;50.104;20.010;2022-07-12T04:27:01;16.40;99.90
51175;DHT22;37240;50.104;20.010;2022-07-12T04:32:02;16.50;99.90
51175;DHT22;37240;50.104;20.010;2022-07-12T04:37:02;17.50;99.90
51175;DHT22;37240;50.104;20.010;2022-07-12T04:42:03;18.50;99.90
51175;DHT22;37240;50.104;20.010;2022-07-12T04:47:04;18.70;99.90
51175;DHT22;37240;50.104;20.010;2022-07-12T04:52:04;19.60;98.80
51175;DHT22;37240;50.104;20.010;2022-07-12T04:57:05;21.90;95.20
51175;DHT22;37240;50.104;20.010;2022-07-12T05:02:06;24.30;90.40
51175;DHT22;37240;50.104;20.010;2022-07-12T05:07:06;26.10;78.80
51175;DHT22;37240;50.104;20.010;2022-07-12T05:12:07;27.20;70.40
51175;DHT22;37240;50.104;20.010;2022-07-12T05:17:07;28.30;63.00
51175;DHT22;37240;50.104;20.010;2022-07-12T05:22:08;28.90;58.70
51175;DHT22;37240;50.104;20.010;2022-07-12T05:27:08;29.40;57.00
51175;DHT22;37240;50.104;20.010;2022-07-12T05:32:09;30.10;54.20
51175;DHT22;37240;50.104;20.010;2022-07-12T05:37:09;30.90;52.40
51175;DHT22;37240;50.104;20.010;2022-07-12T05:42:10;31.50;49.80
51175;DHT22;37240;50.104;20.010;2022-07-12T05:47:11;31.10;48.60
51175;DHT22;37240;50.104;20.010;2022-07-12T05:52:11;29.50;51.00
51175;DHT22;37240;50.104;20.010;2022-07-12T05:57:12;28.50;53.30
51175;DHT22;37240;50.104;20.010;2022-07-12T06:02:12;29.50;52.60
51175;DHT22;37240;50.104;20.010;2022-07-12T06:07:13;30.40;50.40
51175;DHT22;37240;50.104;20.010;2022-07-12T06:12:13;31.00;49.00
51175;DHT22;37240;50.104;20.010;2022-07-12T06:17:14;31.40;48.00
51175;DHT22;37240;50.104;20.010;2022-07-12T06:22:14;30.90;48.30
51175;DHT22;37240;50.104;20.010;2022-07-12T06:27:15;29.70;49.50
51175;DHT22;37240;50.104;20.010;2022-07-12T06:32:16;28.50;51.50
51175;DHT22;37240;50.104;20.010;2022-07-12T06:37:16;27.40;54.00
51175;DHT22;37240;50.104;20.010;2022-07-12T06:42:17;26.70;55.60
51175;DHT22;37240;50.104;20.010;2022-07-12T06:47:17;26.00;57.00
51175;DHT22;37240;50.104;20.010;2022-07-12T06:52:18;25.50;58.60
51175;DHT22;37240;50.104;20.010;2022-07-12T06:57:18;25.00;60.00
51175;DHT22;37240;50.104;20.010;2022-07-12T07:02:19;24.60;61.90
51175;DHT22;37240;50.104;20.010;2022-07-12T07:07:19;24.30;63.30
51175;DHT22;37240;50.104;20.010;2022-07-12T07:12:20;24.10;64.70
51175;DHT22;37240;50.104;20.010;2022-07-12T07:17:20;23.90;65.80
51175;DHT22;37240;50.104;20.010;2022-07-12T07:22:24;23.70;67.40
51175;DHT22;37240;50.104;20.010;2022-07-12T07:27:24;23.70;67.60
51175;DHT22;37240;50.104;20.010;2022-07-12T07:32:25;23.70;67.80
51175;DHT22;37240;50.104;20.010;2022-07-12T07:37:26;23.70;68.30
51175;DHT22;37240;50.104;20.010;2022-07-12T07:42:26;23.90;67.80
51175;DHT22;37240;50.104;20.010;2022-07-12T07:47:27;24.00;67.60
51175;DHT22;37240;50.104;20.010;2022-07-12T07:52:27;24.20;66.90
51175;DHT22;37240;50.104;20.010;2022-07-12T07:57:29;24.10;66.50
51175;DHT22;37240;50.104;20.010;2022-07-12T08:02:29;24.10;67.80
51175;DHT22;37240;50.104;20.010;2022-07-12T08:07:30;24.40;67.30
51175;DHT22;37240;50.104;20.010;2022-07-12T08:12:30;24.80;66.10
51175;DHT22;37240;50.104;20.010;2022-07-12T08:17:31;24.80;64.00
51175;DHT22;37240;50.104;20.010;2022-07-12T08:22:31;24.80;63.40
51175;DHT22;37240;50.104;20.010;2022-07-12T08:27:32;24.80;64.40
51175;DHT22;37240;50.104;20.010;2022-07-12T08:32:34;24.90;62.60
51175;DHT22;37240;50.104;20.010;2022-07-12T08:37:34;24.90;63.60
51175;DHT22;37240;50.104;20.010;2022-07-12T08:42:36;25.00;62.80
51175;DHT22;37240;50.104;20.010;2022-07-12T08:47:40;25.10;62.30
51175;DHT22;37240;50.104;20.010;2022-07-12T08:52:45;25.40;61.30
51175;DHT22;37240;50.104;20.010;2022-07-12T08:57:48;25.60;61.10
51175;DHT22;37240;50.104;20.010;2022-07-12T09:13:03;25.00;60.10
51175;DHT22;37240;50.104;20.010;2022-07-12T09:18:05;25.00;59.60
51175;DHT22;37240;50.104;20.010;2022-07-12T09:23:10;25.10;57.80
51175;DHT22;37240;50.104;20.010;2022-07-12T09:28:11;25.30;57.40
51175;DHT22;37240;50.104;20.010;2022-07-12T09:33:12;25.50;58.20
51175;DHT22;37240;50.104;20.010;2022-07-12T09:38:12;25.00;60.90
51175;DHT22;37240;50.104;20.010;2022-07-12T09:43:14;24.40;63.10
51175;DHT22;37240;50.104;20.010;2022-07-12T09:48:15;24.20;65.50
51175;DHT22;37240;50.104;20.010;2022-07-12T09:53:26;24.10;66.60
51175;DHT22;37240;50.104;20.010;2022-07-12T09:58:32;24.10;68.30
51175;DHT22;37240;50.104;20.010;2022-07-12T10:03:35;23.80;69.30
51175;DHT22;37240;50.104;20.010;2022-07-12T10:08:36;23.80;69.80
51175;DHT22;37240;50.104;20.010;2022-07-12T10:13:40;23.70;71.00
51175;DHT22;37240;50.104;20.010;2022-07-12T10:18:41;23.80;69.90
51175;DHT22;37240;50.104;20.010;2022-07-12T10:23:41;23.90;70.10
51175;DHT22;37240;50.104;20.010;2022-07-12T10:34:14;24.10;69.40
51175;DHT22;37240;50.104;20.010;2022-07-12T10:39:19;24.20;69.70
51175;DHT22;37240;50.104;20.010;2022-07-12T10:49:36;24.50;67.20
51175;DHT22;37240;50.104;20.010;2022-07-12T10:54:50;24.80;66.00
51175;DHT22;37240;50.104;20.010;2022-07-12T11:00:07;24.90;65.30
51175;DHT22;37240;50.104;20.010;2022-07-12T11:05:08;25.00;63.50
51175;DHT22;37240;50.104;20.010;2022-07-12T11:10:11;24.90;62.50
51175;DHT22;37240;50.104;20.010;2022-07-12T11:15:12;25.00;63.80
51175;DHT22;37240;50.104;20.010;2022-07-12T11:20:16;25.00;61.00
51175;DHT22;37240;50.104;20.010;2022-07-12T11:25:16;25.20;59.80
51175;DHT22;37240;50.104;20.010;2022-07-12T11:30:17;25.30;60.10
51175;DHT22;37240;50.104;20.010;2022-07-12T11:35:19;25.30;60.20
51175;DHT22;37240;50.104;20.010;2022-07-12T11:40:29;25.30;60.40
51175;DHT22;37240;50.104;20.010;2022-07-12T11:45:32;25.20;60.50
51175;DHT22;37240;50.104;20.010;2022-07-12T11:50:33;25.20;59.50
51175;DHT22;37240;50.104;20.010;2022-07-12T11:55:41;25.30;58.90
51175;DHT22;37240;50.104;20.010;2022-07-12T12:00:43;25.50;60.10
51175;DHT22;37240;50.104;20.010;2022-07-12T12:05:48;25.40;61.00
51175;DHT22;37240;50.104;20.010;2022-07-12T12:10:56;25.40;61.30
51175;DHT22;37240;50.104;20.010;2022-07-12T12:16:04;25.50;61.70
51175;DHT22;37240;50.104;20.010;2022-07-12T12:21:11;25.60;59.90
51175;DHT22;37240;50.104;20.010;2022-07-12T12:26:17;25.50;60.00
51175;DHT22;37240;50.104;20.010;2022-07-12T12:31:18;25.50;61.20
51175;DHT22;37240;50.104;20.010;2022-07-12T12:36:27;25.60;60.20
51175;DHT22;37240;50.104;20.010;2022-07-12T12:41:30;25.60;59.30
51175;DHT22;37240;50.104;20.010;2022-07-12T12:46:51;25.70;58.90
51175;DHT22;37240;50.104;20.010;2022-07-12T12:51:53;25.80;59.20
51175;DHT22;37240;50.104;20.010;2022-07-12T12:56:54;26.00;59.30
51175;DHT22;37240;50.104;20.010;2022-07-12T13:01:55;25.80;59.00
51175;DHT22;37240;50.104;20.010;2022-07-12T13:06:56;25.40;59.90
51175;DHT22;37240;50.104;20.010;2022-07-12T13:11:56;24.80;63.00
51175;DHT22;37240;50.104;20.010;2022-07-12T13:16:58;24.20;66.30
51175;DHT22;37240;50.104;20.010;2022-07-12T13:21:58;23.80;66.80
51175;DHT22;37240;50.104;20.010;2022-07-12T13:26:59;23.80;68.10
51175;DHT22;37240;50.104;20.010;2022-07-12T13:32:00;23.80;70.70
51175;DHT22;37240;50.104;20.010;2022-07-12T13:37:00;23.80;72.80
51175;DHT22;37240;50.104;20.010;2022-07-12T13:42:01;23.90;73.00
51175;DHT22;37240;50.104;20.010;2022-07-12T13:47:01;23.80;73.90
51175;DHT22;37240;50.104;20.010;2022-07-12T13:52:02;23.80;74.60
51175;DHT22;37240;50.104;20.010;2022-07-12T13:57:03;23.80;75.20
51175;DHT22;37240;50.104;20.010;2022-07-12T14:02:05;24.10;74.30
51175;DHT22;37240;50.104;20.010;2022-07-12T14:07:05;24.20;72.00
51175;DHT22;37240;50.104;20.010;2022-07-12T14:12:06;24.20;72.80
51175;DHT22;37240;50.104;20.010;2022-07-12T14:17:06;24.40;72.10
51175;DHT22;37240;50.104;20.010;2022-07-12T14:22:07;24.50;72.40
51175;DHT22;37240;50.104;20.010;2022-07-12T14:27:08;24.50;72.00
51175;DHT22;37240;50.104;20.010;2022-07-12T14:32:09;24.50;70.00
51175;DHT22;37240;50.104;20.010;2022-07-12T14:37:09;24.50;66.50
51175;DHT22;37240;50.104;20.010;2022-07-12T14:42:10;24.40;63.80
51175;DHT22;37240;50.104;20.010;2022-07-12T14:47:10;24.30;61.00
51175;DHT22;37240;50.104;20.010;2022-07-12T14:52:11;24.20;61.10
51175;DHT22;37240;50.104;20.010;2022-07-12T14:57:11;24.20;61.40
51175;DHT22;37240;50.104;20.010;2022-07-12T15:02:12;24.30;61.50
51175;DHT22;37240;50.104;20.010;2022-07-12T15:07:13;24.40;61.10
51175;DHT22;37240;50.104;20.010;2022-07-12T15:12:14;24.40;62.60
51175;DHT22;37240;50.104;20.010;2022-07-12T15:17:14;24.40;63.20
51175;DHT22;37240;50.104;20.010;2022-07-12T15:22:15;24.30;63.50
51175;DHT22;37240;50.104;20.010;2022-07-12T15:27:15;24.30;63.00
51175;DHT22;37240;50.104;20.010;2022-07-12T15:32:16;24.20;63.60
51175;DHT22;37240;50.104;20.010;2022-07-12T15:37:17;24.00;63.60
51175;DHT22;37240;50.104;20.010;2022-07-12T15:42:17;23.80;64.50
51175;DHT22;37240;50.104;20.010;2022-07-12T15:47:18;23.70;65.50
51175;DHT22;37240;50.104;20.010;2022-07-12T15:52:19;23.60;66.10
51175;DHT22;37240;50.104;20.010;2022-07-12T15:57:20;23.50;66.40
51175;DHT22;37240;50.104;20.010;2022-07-12T16:02:20;23.50;66.60
51175;DHT22;37240;50.104;20.010;2022-07-12T16:07:22;23.50;66.60
51175;DHT22;37240;50.104;20.010;2022-07-12T16:12:23;23.40;66.50
51175;DHT22;37240;50.104;20.010;2022-07-12T16:17:23;23.40;67.10
51175;DHT22;37240;50.104;20.010;2022-07-12T16:22:24;23.40;67.80
51175;DHT22;37240;50.104;20.010;2022-07-12T16:27:24;23.40;69.90
51175;DHT22;37240;50.104;20.010;2022-07-12T16:32:25;23.40;70.50
51175;DHT22;37240;50.104;20.010;2022-07-12T16:37:26;23.40;71.60
51175;DHT22;37240;50.104;20.010;2022-07-12T16:42:26;23.40;74.10
51175;DHT22;37240;50.104;20.010;2022-07-12T16:47:27;23.40;73.80
51175;DHT22;37240;50.104;20.010;2022-07-12T16:52:27;23.50;74.30
51175;DHT22;37240;50.104;20.010;2022-07-12T16:57:28;23.50;74.70
51175;DHT22;37240;50.104;20.010;2022-07-12T17:02:28;23.40;74.80
51175;DHT22;37240;50.104;20.010;2022-07-12T17:07:29;23.40;75.10
51175;DHT22;37240;50.104;20.010;2022-07-12T17:12:30;23.40;74.90
51175;DHT22;37240;50.104;20.010;2022-07-12T17:17:30;23.20;75.00
51175;DHT22;37240;50.104;20.010;2022-07-12T17:22:31;23.20;73.70
51175;DHT22;37240;50.104;20.010;2022-07-12T17:27:31;23.00;74.00
51175;DHT22;37240;50.104;20.010;2022-07-12T17:32:35;22.90;74.50
51175;DHT22;37240;50.104;20.010;2022-07-12T17:37:35;22.90;75.00
51175;DHT22;37240;50.104;20.010;2022-07-12T17:42:36;22.80;75.20
51175;DHT22;37240;50.104;20.010;2022-07-12T17:47:36;22.80;75.40
51175;DHT22;37240;50.104;20.010;2022-07-12T17:52:41;22.70;76.40
51175;DHT22;37240;50.104;20.010;2022-07-12T17:57:42;22.60;77.80
51175;DHT22;37240;50.104;20.010;2022-07-12T18:02:43;22.60;77.60
51175;DHT22;37240;50.104;20.010;2022-07-12T18:07:43;22.50;77.90
51175;DHT22;37240;50.104;20.010;2022-07-12T18:12:44;22.30;78.90
51175;DHT22;37240;50.104;20.010;2022-07-12T18:17:44;22.20;79.90
51175;DHT22;37240;50.104;20.010;2022-07-12T18:22:45;22.20;79.00
51175;DHT22;37240;50.104;20.010;2022-07-12T18:27:46;22.10;79.80
51175;DHT22;37240;50.104;20.010;2022-07-12T18:32:47;22.10;80.70
51175;DHT22;37240;50.104;20.010;2022-07-12T18:37:47;22.00;81.40
51175;DHT22;37240;50.104;20.010;2022-07-12T18:42:48;22.00;82.60
51175;DHT22;37240;50.104;20.010;2022-07-12T18:47:48;22.00;84.10
51175;DHT22;37240;50.104;20.010;2022-07-12T18:52:49;22.00;85.40
51175;DHT22;37240;50.104;20.010;2022-07-12T18:57:50;22.00;85.10
51175;DHT22;37240;50.104;20.010;2022-07-12T19:02:50;21.90;85.90
51175;DHT22;37240;50.104;20.010;2022-07-12T19:07:51;21.80;86.70
51175;DHT22;37240;50.104;20.010;2022-07-12T19:12:51;21.70;87.20
51175;DHT22;37240;50.104;20.010;2022-07-12T19:17:52;21.70;87.50
51175;DHT22;37240;50.104;20.010;2022-07-12T19:22:53;21.60;88.00
51175;DHT22;37240;50.104;20.010;2022-07-12T19:27:53;21.60;88.40
51175;DHT22;37240;50.104;20.010;2022-07-12T19:32:54;21.60;89.10
51175;DHT22;37240;50.104;20.010;2022-07-12T19:37:54;21.50;89.00
51175;DHT22;37240;50.104;20.010;2022-07-12T19:42:55;21.50;88.80
51175;DHT22;37240;50.104;20.010;2022-07-12T19:47:55;21.40;89.70
51175;DHT22;37240;50.104;20.010;2022-07-12T19:52:58;21.40;89.70
51175;DHT22;37240;50.104;20.010;2022-07-12T19:57:59;21.40;90.00
51175;DHT22;37240;50.104;20.010;2022-07-12T20:03:00;21.40;90.20
51175;DHT22;37240;50.104;20.010;2022-07-12T20:08:00;21.30;90.30
51175;DHT22;37240;50.104;20.010;2022-07-12T20:13:01;21.30;90.40
51175;DHT22;37240;50.104;20.010;2022-07-12T20:18:03;21.40;90.50
51175;DHT22;37240;50.104;20.010;2022-07-12T20:23:05;21.30;90.70
51175;DHT22;37240;50.104;20.010;2022-07-12T20:28:05;21.20;90.80
51175;DHT22;37240;50.104;20.010;2022-07-12T20:33:06;21.20;90.60
51175;DHT22;37240;50.104;20.010;2022-07-12T20:38:07;21.10;90.90
51175;DHT22;37240;50.104;20.010;2022-07-12T20:43:07;21.10;90.80
51175;DHT22;37240;50.104;20.010;2022-07-12T20:48:08;21.00;90.70
51175;DHT22;37240;50.104;20.010;2022-07-12T20:53:09;21.00;90.00
51175;DHT22;37240;50.104;20.010;2022-07-12T20:58:10;20.90;88.70
51175;DHT22;37240;50.104;20.010;2022-07-12T21:03:11;20.90;87.20
51175;DHT22;37240;50.104;20.010;2022-07-12T21:08:11;20.90;87.00
51175;DHT22;37240;50.104;20.010;2022-07-12T21:13:12;20.80;86.70
51175;DHT22;37240;50.104;20.010;2022-07-12T21:18:13;20.80;85.20
51175;DHT22;37240;50.104;20.010;2022-07-12T21:23:14;20.80;84.50
51175;DHT22;37240;50.104;20.010;2022-07-12T21:28:15;20.70;83.20
51175;DHT22;37240;50.104;20.010;2022-07-12T21:33:16;20.80;83.30
51175;DHT22;37240;50.104;20.010;2022-07-12T21:38:16;20.80;82.80
51175;DHT22;37240;50.104;20.010;2022-07-12T21:43:17;20.70;82.70
51175;DHT22;37240;50.104;20.010;2022-07-12T21:48:18;20.80;82.50
51175;DHT22;37240;50.104;20.010;2022-07-12T21:53:18;20.70;81.80
51175;DHT22;37240;50.104;20.010;2022-07-12T21:58:19;20.70;81.80
51175;DHT22;37240;50.104;20.010;2022-07-12T22:03:19;20.70;81.00
51175;DHT22;37240;50.104;20.010;2022-07-12T22:08:20;20.70;81.40
51175;DHT22;37240;50.104;20.010;2022-07-12T22:13:20;20.60;80.10
51175;DHT22;37240;50.104;20.010;2022-07-12T22:18:21;20.50;80.70
51175;DHT22;37240;50.104;20.010;2022-07-12T22:23:21;20.50;80.90
51175;DHT22;37240;50.104;20.010;2022-07-12T22:28:22;20.50;80.50
51175;DHT22;37240;50.104;20.010;2022-07-12T22:33:22;20.50;80.70
51175;DHT22;37240;50.104;20.010;2022-07-12T22:38:23;20.40;80.30
51175;DHT22;37240;50.104;20.010;2022-07-12T22:43:24;20.40;80.60
51175;DHT22;37240;50.104;20.010;2022-07-12T22:48:24;20.30;80.70
51175;DHT22;37240;50.104;20.010;2022-07-12T22:53:25;20.20;81.50
51175;DHT22;37240;50.104;20.010;2022-07-12T22:58:25;20.20;81.40
51175;DHT22;37240;50.104;20.010;2022-07-12T23:03:26;20.20;81.00
51175;DHT22;37240;50.104;20.010;2022-07-12T23:08:26;20.10;80.30
51175;DHT22;37240;50.104;20.010;2022-07-12T23:13:27;20.10;80.50
51175;DHT22;37240;50.104;20.010;2022-07-12T23:18:27;20.10;80.00
51175;DHT22;37240;50.104;20.010;2022-07-12T23:23:28;20.00;80.20
51175;DHT22;37240;50.104;20.010;2022-07-12T23:28:29;20.00;80.10
51175;DHT22;37240;50.104;20.010;2022-07-12T23:33:29;19.90;80.70
51175;DHT22;37240;50.104;20.010;2022-07-12T23:38:30;19.90;81.00
51175;DHT22;37240;50.104;20.010;2022-07-12T23:43:30;19.90;80.40
51175;DHT22;37240;50.104;20.010;2022-07-12T23:48:31;19.80;80.70
51175;DHT22;37240;50.104;20.010;2022-07-12T23:53:31;19.80;81.10
51175;DHT22;37240;50.104;20.010;2022-07-12T23:58:32;19.80;81.60
